EDT,Max TemperatureF,Mean TemperatureF,Min TemperatureF,Max Dew PointF,MeanDew PointF,Min DewpointF,Max Humidity, Mean Humidity, Min Humidity, Max Sea Level PressureIn, Mean Sea Level PressureIn, Min Sea Level PressureIn, Max VisibilityMiles, Mean VisibilityMiles, Min VisibilityMiles, Max Wind SpeedMPH, Mean Wind SpeedMPH, Max Gust SpeedMPH,PrecipitationIn, CloudCover, Events, WindDirDegrees
2013-10-1,75,58,41,54,47,39,100,73,36,29.94,29.86,29.79,10,10,4,12,3,17,0.00,0,,1
2013-10-2,75,63,51,57,50,43,94,62,40,29.85,29.77,29.71,10,10,9,15,4,25,0.00,1,,254
2013-10-3,73,60,48,48,44,41,87,55,33,30.02,29.96,29.85,10,10,10,12,5,20,0.00,0,,263
2013-10-4,68,57,46,52,45,37,93,67,43,30.07,30.03,29.99,10,10,10,5,1,,0.00,3,,331
2013-10-5,62,55,48,46,42,37,87,66,48,30.12,30.08,30.05,10,10,10,4,0,,0.00,5,,30
2013-10-6,57,50,42,46,37,32,93,63,44,30.26,30.21,30.12,10,9,3,9,2,,0.08,4,,139
2013-10-7,68,58,48,64,55,46,100,94,88,30.18,29.97,29.74,10,4,1,14,2,30,0.55,8,,177
2013-10-8,62,50,39,61,40,34,94,63,41,30.35,30.09,29.77,10,10,10,16,7,23,0.00,1,,292
2013-10-9,60,46,33,41,37,32,100,71,39,30.45,30.37,30.32,10,10,0,7,2,,0.00,0,,210
2013-10-10,66,50,35,48,42,34,93,77,43,30.31,30.23,30.14,10,10,2,6,3,,0.00,0,,201
2013-10-11,71,55,39,54,46,37,93,74,46,30.16,30.13,30.10,10,10,3,8,2,,0.00,0,,18
2013-10-12,57,54,51,50,48,46,88,81,72,30.38,30.31,30.16,10,10,10,9,5,,0.00,6,,30
2013-10-13,57,54,50,48,46,45,87,79,67,30.43,30.38,30.34,10,10,5,8,3,,0.00,8,,214
2013-10-14,62,52,41,46,44,39,93,76,55,30.34,30.26,30.19,10,8,0,10,4,16,0.00,6,,199
2013-10-15,66,55,44,52,48,43,94,78,52,30.25,30.21,30.16,10,10,2,7,2,,0.00,3,,145
2013-10-16,62,56,51,52,49,43,94,80,48,30.17,30.04,29.86,10,10,10,8,1,,0.00,6,,147
2013-10-17,68,58,48,54,49,43,94,78,49,29.86,29.77,29.69,10,10,8,8,3,,0.00,5,,225
2013-10-18,64,56,48,54,45,37,100,73,49,29.78,29.65,29.56,10,9,2,15,5,25,0.18,6,,303
2013-10-19,62,52,42,45,39,36,82,62,39,29.88,29.82,29.72,10,10,10,10,5,18,0.00,1,,209
2013-10-20,60,51,42,48,37,27,93,60,29,29.90,29.72,29.61,10,10,5,18,5,26,0.01,3,,231
2013-10-21,60,48,35,45,35,28,87,63,39,30.02,29.97,29.90,10,10,10,13,5,17,0.00,1,,223
2013-10-22,60,48,37,52,45,36,94,83,59,29.93,29.77,29.66,10,10,8,13,4,22,0.04,4,,204
2013-10-23,51,42,32,36,32,28,100,70,41,29.71,29.61,29.54,10,10,0,8,2,,0.00,2,,266
2013-10-24,48,40,33,30,26,21,75,55,37,29.75,29.64,29.56,10,10,10,20,7,29,0.00,4,,260
2013-10-25,50,42,33,30,26,21,75,55,43,30.03,29.90,29.75,10,10,10,14,7,21,0.00,3,,278
2013-10-26,46,38,30,36,28,21,76,63,50,30.05,29.96,29.81,10,10,9,15,5,20,0.00,3,,211
2013-10-27,53,46,39,37,32,23,93,64,44,29.95,29.80,29.74,10,10,10,13,5,21,0.00,5,,240
2013-10-28,51,40,30,34,27,18,81,61,43,30.31,30.07,29.95,10,10,10,21,6,32,0.00,3,,259
2013-10-29,46,34,23,25,19,14,93,59,29,30.41,30.35,30.30,10,10,10,10,2,,0.00,0,,257
2013-10-30,46,35,24,25,22,19,93,65,34,30.30,30.20,30.12,10,10,10,12,2,16,0.00,1,,264
2013-10-31,55,40,24,55,36,21,100,87,66,30.20,30.04,29.72,10,7,1,12,2,18,0.38,5,,200